createdAt,value
2019-05-25T00:04:14.667Z,0.00
2019-05-25T00:09:14.539Z,0.00
2019-05-25T00:14:14.503Z,0.00
2019-05-25T00:19:14.449Z,0.00
2019-05-25T00:24:14.424Z,0.00
2019-05-25T00:29:14.402Z,0.00
2019-05-25T00:34:14.277Z,0.00
2019-05-25T00:39:14.235Z,0.00
2019-05-25T00:44:14.218Z,0.00
2019-05-25T00:49:14.134Z,0.00
2019-05-25T00:54:27.070Z,0.00
2019-05-25T00:59:15.043Z,0.00
2019-05-25T01:04:13.966Z,0.00
2019-05-25T01:09:14.011Z,0.00
2019-05-25T01:14:13.846Z,0.00
2019-05-25T01:19:13.829Z,0.00
2019-05-25T01:24:13.736Z,0.00
2019-05-25T01:29:13.724Z,0.00
2019-05-25T01:34:13.748Z,0.00
2019-05-25T01:39:13.576Z,0.00
2019-05-25T01:44:13.562Z,0.00
2019-05-25T01:49:13.451Z,0.00
2019-05-25T01:54:13.413Z,0.00
2019-05-25T01:59:13.411Z,0.00
2019-05-25T02:04:13.351Z,0.00
2019-05-25T02:09:13.329Z,0.00
2019-05-25T02:14:13.271Z,0.00
2019-05-25T02:19:13.380Z,0.00
2019-05-25T02:24:13.285Z,0.00
2019-05-25T02:29:13.210Z,0.00
2019-05-25T02:34:13.098Z,0.00
2019-05-25T02:39:13.031Z,0.00
2019-05-25T02:44:12.935Z,0.00
2019-05-25T02:49:13.020Z,0.00
2019-05-25T02:54:13.018Z,0.00
2019-05-25T02:59:12.894Z,0.00
2019-05-25T03:04:12.880Z,0.00
2019-05-25T03:09:12.721Z,0.00
2019-05-25T03:14:12.735Z,0.00
2019-05-25T03:19:12.606Z,0.00
2019-05-25T03:24:12.472Z,0.00
2019-05-25T03:29:12.413Z,5.62
2019-05-25T03:34:12.598Z,11.25
2019-05-25T03:39:12.410Z,16.88
2019-05-25T03:44:12.356Z,22.50
2019-05-25T03:49:12.274Z,33.75
2019-05-25T03:54:12.238Z,39.38
2019-05-25T03:59:12.090Z,50.62
2019-05-25T04:04:12.024Z,56.25
2019-05-25T04:09:13.063Z,73.12
2019-05-25T04:14:12.002Z,90.00
2019-05-25T04:19:11.862Z,101.25
2019-05-25T04:24:11.914Z,112.50
2019-05-25T04:29:11.844Z,123.75
2019-05-25T04:34:11.739Z,135.00
2019-05-25T04:39:11.717Z,151.88
2019-05-25T04:44:11.776Z,163.12
2019-05-25T04:49:11.757Z,185.62
2019-05-25T04:54:13.525Z,298.12
2019-05-25T04:59:12.601Z,320.62
2019-05-25T05:04:11.491Z,371.25
2019-05-25T05:09:11.443Z,421.88
2019-05-25T05:14:11.324Z,506.25
2019-05-25T05:19:11.234Z,455.62
2019-05-25T05:24:11.167Z,433.12
2019-05-25T05:29:11.122Z,618.75
2019-05-25T05:34:11.012Z,703.12
2019-05-25T05:39:11.007Z,714.38
2019-05-25T05:44:11.064Z,900.00
2019-05-25T05:49:11.983Z,708.75
2019-05-25T05:54:11.037Z,528.75
2019-05-25T05:59:10.942Z,568.12
2019-05-25T06:04:10.982Z,528.75
2019-05-25T06:09:10.735Z,585.00
2019-05-25T06:14:10.686Z,472.50
2019-05-25T06:19:13.797Z,405.00
2019-05-25T06:24:10.581Z,360.00
2019-05-25T06:29:10.447Z,382.50
2019-05-25T06:34:10.374Z,343.12
2019-05-25T06:39:10.354Z,765.00
2019-05-25T06:44:10.283Z,866.25
2019-05-25T06:49:10.284Z,1203.75
2019-05-25T06:54:10.314Z,1378.12
2019-05-25T06:59:10.242Z,1468.12
2019-05-25T07:04:10.305Z,1485.00
2019-05-25T07:09:10.122Z,1355.62
2019-05-25T07:14:09.977Z,1496.25
2019-05-25T07:19:09.989Z,1603.12
2019-05-25T07:24:09.940Z,1642.50
2019-05-25T07:29:09.866Z,1558.12
2019-05-25T07:34:09.774Z,1749.38
2019-05-25T07:39:09.708Z,1867.50
2019-05-25T07:44:09.808Z,1963.12
2019-05-25T07:49:09.773Z,2008.12
2019-05-25T07:54:09.570Z,2311.88
2019-05-25T07:59:09.522Z,2317.50
2019-05-25T08:04:09.492Z,1670.62
2019-05-25T08:09:09.465Z,1749.38
2019-05-25T08:14:09.525Z,1434.38
2019-05-25T08:19:09.403Z,1203.75
2019-05-25T08:24:09.333Z,1260.00
2019-05-25T08:29:09.263Z,1276.88
2019-05-25T08:34:09.480Z,1186.88
2019-05-25T08:39:09.219Z,1136.25
2019-05-25T08:44:09.124Z,1237.50
2019-05-25T08:49:09.138Z,1040.62
2019-05-25T08:54:09.085Z,956.25
2019-05-25T08:59:09.051Z,973.12
2019-05-25T09:04:08.959Z,1462.50
2019-05-25T09:09:09.018Z,1822.50
2019-05-25T09:14:08.919Z,2396.25
2019-05-25T09:19:08.907Z,2632.50
2019-05-25T09:24:08.819Z,2576.25
2019-05-25T09:29:08.666Z,2480.62
2019-05-25T09:34:08.657Z,2542.50
2019-05-25T09:39:08.584Z,2823.75
2019-05-25T09:44:08.566Z,3127.50
2019-05-25T09:49:08.551Z,1783.12
2019-05-25T09:54:08.751Z,1603.12
2019-05-25T09:59:19.630Z,2491.88
2019-05-25T10:04:09.448Z,2317.50
2019-05-25T10:09:08.329Z,1580.62
2019-05-25T10:14:08.350Z,1237.50
2019-05-25T10:19:08.227Z,2829.38
2019-05-25T10:24:08.236Z,2913.75
2019-05-25T10:29:08.291Z,2986.88
2019-05-25T10:34:08.257Z,3031.88
2019-05-25T10:39:08.113Z,1839.38
2019-05-25T10:44:08.051Z,3189.38
2019-05-25T10:49:11.090Z,3200.62
2019-05-25T10:54:07.946Z,3211.88
2019-05-25T10:59:07.893Z,3442.50
2019-05-25T11:04:07.946Z,2154.38
2019-05-25T11:09:07.968Z,3330.00
2019-05-25T11:14:07.809Z,2593.12
2019-05-25T11:19:07.879Z,3251.25
2019-05-25T11:24:07.844Z,1350.00
2019-05-25T11:29:07.979Z,3256.88
2019-05-25T11:34:07.772Z,3088.12
2019-05-25T11:39:07.701Z,1468.12
2019-05-25T11:44:07.705Z,3363.75
2019-05-25T11:49:21.618Z,1878.75
2019-05-25T11:54:08.536Z,1260.00
2019-05-25T11:59:07.531Z,3571.88
2019-05-25T12:04:07.687Z,1462.50
2019-05-25T12:09:07.428Z,1985.62
2019-05-25T12:14:07.483Z,2148.75
2019-05-25T12:19:08.437Z,3054.38
2019-05-25T12:24:07.350Z,1586.25
2019-05-25T12:29:07.417Z,1501.88
2019-05-25T12:34:07.297Z,2244.38
2019-05-25T12:39:07.194Z,2351.25
2019-05-25T12:44:07.172Z,1035.00
2019-05-25T12:49:07.097Z,916.88
2019-05-25T12:54:07.090Z,1462.50
2019-05-25T12:59:07.046Z,1035.00
2019-05-25T13:04:07.095Z,2998.12
2019-05-25T13:09:07.043Z,3133.12
2019-05-25T13:14:14.484Z,849.38
2019-05-25T13:19:07.951Z,2986.88
2019-05-25T13:24:06.933Z,2812.50
2019-05-25T13:29:06.829Z,2925.00
2019-05-25T13:34:06.739Z,2722.50
2019-05-25T13:39:06.906Z,2790.00
2019-05-25T13:44:06.691Z,2801.25
2019-05-25T13:49:06.621Z,1051.88
2019-05-25T13:54:06.641Z,596.25
2019-05-25T13:59:06.542Z,2610.00
2019-05-25T14:04:06.592Z,2525.62
2019-05-25T14:09:06.478Z,2520.00
2019-05-25T14:14:06.429Z,2497.50
2019-05-25T14:19:06.381Z,2576.25
2019-05-25T14:24:06.390Z,2250.00
2019-05-25T14:29:06.312Z,2193.75
2019-05-25T14:34:06.270Z,1012.50
2019-05-25T14:39:06.290Z,883.12
2019-05-25T14:44:06.167Z,871.88
2019-05-25T14:49:06.140Z,995.62
2019-05-25T14:54:06.073Z,596.25
2019-05-25T14:59:06.080Z,523.12
2019-05-25T15:04:06.120Z,416.25
2019-05-25T15:09:06.006Z,405.00
2019-05-25T15:14:06.221Z,393.75
2019-05-25T15:19:05.921Z,421.88
2019-05-25T15:24:06.003Z,540.00
2019-05-25T15:29:05.797Z,607.50
2019-05-25T15:34:06.239Z,691.88
2019-05-25T15:39:05.891Z,736.88
2019-05-25T15:44:05.685Z,736.88
2019-05-25T15:49:05.599Z,635.62
2019-05-25T15:54:10.147Z,585.00
2019-05-25T15:59:06.652Z,579.38
2019-05-25T16:04:05.623Z,483.75
2019-05-25T16:09:05.545Z,461.25
2019-05-25T16:14:07.559Z,421.88
2019-05-25T16:19:05.444Z,416.25
2019-05-25T16:24:08.027Z,421.88
2019-05-25T16:29:05.238Z,416.25
2019-05-25T16:34:05.243Z,399.38
2019-05-25T16:39:05.136Z,371.25
2019-05-25T16:44:05.103Z,354.38
2019-05-25T16:49:05.039Z,337.50
2019-05-25T16:54:04.999Z,326.25
2019-05-25T16:59:04.954Z,303.75
2019-05-25T17:04:04.954Z,309.38
2019-05-25T17:09:04.879Z,315.00
2019-05-25T17:14:04.809Z,292.50
2019-05-25T17:19:04.760Z,286.88
2019-05-25T17:24:04.734Z,270.00
2019-05-25T17:29:04.668Z,286.88
2019-05-25T17:34:04.645Z,264.38
2019-05-25T17:39:04.583Z,247.50
2019-05-25T17:44:04.552Z,225.00
2019-05-25T17:49:04.484Z,230.62
2019-05-25T17:54:04.472Z,241.88
2019-05-25T17:59:04.410Z,298.12
2019-05-25T18:04:07.740Z,421.88
2019-05-25T18:09:04.402Z,337.50
2019-05-25T18:14:04.402Z,225.00
2019-05-25T18:19:04.342Z,196.88
2019-05-25T18:24:04.367Z,180.00
2019-05-25T18:29:04.119Z,163.12
2019-05-25T18:34:04.089Z,146.25
2019-05-25T18:39:04.022Z,135.00
2019-05-25T18:44:04.036Z,123.75
2019-05-25T18:49:03.996Z,112.50
2019-05-25T18:54:03.929Z,101.25
2019-05-25T18:59:03.858Z,84.38
2019-05-25T19:04:03.791Z,78.75
2019-05-25T19:09:03.780Z,61.88
2019-05-25T19:14:03.681Z,45.00
2019-05-25T19:19:03.864Z,33.75
2019-05-25T19:24:03.659Z,28.12
2019-05-25T19:29:05.646Z,16.88
2019-05-25T19:34:03.484Z,11.25
2019-05-25T19:39:03.341Z,5.62
2019-05-25T19:44:03.255Z,5.62
2019-05-25T19:49:03.227Z,0.00
2019-05-25T19:54:03.146Z,0.00
2019-05-25T19:59:03.112Z,0.00
2019-05-25T20:04:03.082Z,0.00
2019-05-25T20:09:03.014Z,0.00
2019-05-25T20:14:02.914Z,0.00
2019-05-25T20:19:02.895Z,0.00
2019-05-25T20:24:02.922Z,0.00
2019-05-25T20:29:02.797Z,0.00
2019-05-25T20:34:02.697Z,0.00
2019-05-25T20:39:02.687Z,0.00
2019-05-25T20:44:02.612Z,0.00
2019-05-25T20:49:02.548Z,0.00
2019-05-25T20:54:02.532Z,0.00
2019-05-25T20:59:02.450Z,0.00
2019-05-25T21:04:02.374Z,0.00
2019-05-25T21:09:02.346Z,0.00
2019-05-25T21:14:02.303Z,0.00
2019-05-25T21:19:03.107Z,0.00
2019-05-25T21:24:02.185Z,0.00
2019-05-25T21:29:02.103Z,0.00
2019-05-25T21:34:02.084Z,0.00
2019-05-25T21:39:02.006Z,0.00
2019-05-25T21:44:01.947Z,0.00
2019-05-25T21:49:01.902Z,0.00
2019-05-25T21:54:01.882Z,0.00
2019-05-25T21:59:01.783Z,0.00
2019-05-25T22:04:01.736Z,0.00
2019-05-25T22:09:01.664Z,0.00
2019-05-25T22:14:01.620Z,0.00
2019-05-25T22:19:01.595Z,0.00
2019-05-25T22:24:01.496Z,0.00
2019-05-25T22:29:01.443Z,0.00
2019-05-25T22:34:01.377Z,0.00
2019-05-25T22:39:01.374Z,0.00
2019-05-25T22:44:01.326Z,0.00
2019-05-25T22:49:01.287Z,0.00
2019-05-25T22:54:01.231Z,0.00
2019-05-25T22:59:01.122Z,0.00
2019-05-25T23:04:01.097Z,0.00
2019-05-25T23:09:01.039Z,0.00
2019-05-25T23:14:00.944Z,0.00
2019-05-25T23:19:00.944Z,0.00
2019-05-25T23:24:00.909Z,0.00
2019-05-25T23:29:00.813Z,0.00
2019-05-25T23:34:00.762Z,0.00
2019-05-25T23:39:00.701Z,0.00
2019-05-25T23:44:00.692Z,0.00
2019-05-25T23:49:00.612Z,0.00
2019-05-25T23:54:00.588Z,0.00
2019-05-25T23:59:00.512Z,0.00
